Time;durP1;ratioP1;P1;durP2;ratioP2;P2;SDS_P1;SDS_P2;PMS_P1;PMS_P2;Temp;Humidity;BMP_temperature;BMP_pressure;BME280_temperature;BME280_humidity;BME280_pressure;Samples;Min_cycle;Max_cycle;Signal;HPM_P1;HPM_P2
2022/01/31 00:00:00;;;;;;;21.65;6.90;;;6.40;99.90;;;;;;5079141;28;20032;-76
2022/01/31 00:02:26;;;;;;;27.35;8.25;;;6.40;99.90;;;;;;5091167;28;20028;-76
2022/01/31 00:04:52;;;;;;;26.52;6.90;;;6.40;99.90;;;;;;5091429;28;20034;-76
2022/01/31 00:07:17;;;;;;;23.85;7.75;;;6.40;99.90;;;;;;5092148;28;20020;-77
2022/01/31 00:09:44;;;;;;;25.08;7.55;;;6.40;99.90;;;;;;5091660;28;20032;-77
2022/01/31 00:12:13;;;;;;;22.67;7.15;;;6.40;99.90;;;;;;5092910;28;20024;-76
2022/01/31 00:14:45;;;;;;;18.67;6.90;;;6.40;99.90;;;;;;5092328;28;20081;-77
2022/01/31 00:17:12;;;;;;;18.88;6.43;;;6.50;99.90;;;;;;5090698;28;20025;-77
2022/01/31 00:19:39;;;;;;;19.17;7.10;;;6.50;99.90;;;;;;5090656;28;20547;-77
2022/01/31 00:22:07;;;;;;;26.27;7.38;;;6.60;99.90;;;;;;5091326;28;20483;-76
2022/01/31 00:24:33;;;;;;;19.40;8.15;;;6.60;99.90;;;;;;5092889;28;20084;-76
2022/01/31 00:27:00;;;;;;;25.48;7.72;;;6.60;99.90;;;;;;5092669;28;20024;-76
2022/01/31 00:29:26;;;;;;;25.58;7.60;;;6.50;99.90;;;;;;5092907;28;20016;-77
2022/01/31 00:31:52;;;;;;;17.52;6.30;;;6.60;99.90;;;;;;5093002;28;20020;-77
2022/01/31 00:34:18;;;;;;;17.98;6.88;;;6.50;99.90;;;;;;5077230;28;20037;-76
2022/01/31 00:36:44;;;;;;;23.98;7.15;;;6.60;99.90;;;;;;5103722;28;20024;-77
2022/01/31 00:39:09;;;;;;;22.52;6.55;;;6.60;99.90;;;;;;5088821;28;20455;-78
2022/01/31 00:41:35;;;;;;;32.92;7.53;;;6.60;99.90;;;;;;5094765;28;20024;-77
2022/01/31 00:44:51;;;;;;;24.38;6.57;;;6.60;99.90;;;;;;5096614;28;20379;-77
2022/01/31 00:46:58;;;;;;;19.88;7.57;;;6.50;99.90;;;;;;5083015;28;20502;-78
2022/01/31 00:49:35;;;;;;;24.40;6.85;;;6.50;99.90;;;;;;5076275;28;20029;-77
2022/01/31 00:52:03;;;;;;;19.67;6.72;;;6.50;99.90;;;;;;5075753;28;20028;-77
2022/01/31 00:54:28;;;;;;;24.92;7.43;;;6.60;99.90;;;;;;5076254;28;20039;-77
2022/01/31 00:56:55;;;;;;;24.67;7.03;;;6.50;99.90;;;;;;5077730;28;20468;-76
2022/01/31 00:59:21;;;;;;;23.10;6.10;;;6.50;99.90;;;;;;5096373;28;20032;-76
2022/01/31 01:01:47;;;;;;;22.02;6.70;;;6.50;99.90;;;;;;5095583;28;20128;-77
2022/01/31 01:04:13;;;;;;;20.38;6.40;;;6.50;99.90;;;;;;5095003;28;20024;-76
2022/01/31 01:06:40;;;;;;;25.95;7.00;;;6.50;99.90;;;;;;5084706;28;20040;-77
2022/01/31 01:09:07;;;;;;;22.20;6.18;;;6.50;99.90;;;;;;5091084;28;20439;-77
2022/01/31 01:11:33;;;;;;;17.42;5.82;;;6.50;99.90;;;;;;5090518;28;20050;-77
2022/01/31 01:13:59;;;;;;;29.25;7.47;;;6.60;99.90;;;;;;5093478;28;20383;-77
2022/01/31 01:16:25;;;;;;;19.10;6.47;;;6.60;99.90;;;;;;5088043;28;20025;-77
2022/01/31 01:18:51;;;;;;;25.38;6.72;;;6.60;99.90;;;;;;5091467;28;20086;-75
2022/01/31 01:21:17;;;;;;;22.45;6.72;;;6.60;99.90;;;;;;5091616;28;20570;-76
2022/01/31 01:23:42;;;;;;;15.80;5.85;;;6.60;99.90;;;;;;5088266;28;20028;-77
2022/01/31 01:26:08;;;;;;;22.02;6.68;;;6.60;99.90;;;;;;5090088;28;20504;-76
2022/01/31 01:28:34;;;;;;;27.60;7.40;;;6.50;99.90;;;;;;5090443;28;20028;-79
2022/01/31 01:31:00;;;;;;;19.73;7.30;;;6.50;99.90;;;;;;5092007;28;20029;-76
2022/01/31 01:33:26;;;;;;;20.23;6.78;;;6.50;99.90;;;;;;5092767;28;20042;-76
2022/01/31 01:35:54;;;;;;;17.80;7.40;;;6.60;99.90;;;;;;5094900;28;20016;-74
2022/01/31 01:38:23;;;;;;;26.83;8.00;;;6.60;99.90;;;;;;5086700;28;20089;-76
2022/01/31 01:40:48;;;;;;;28.27;7.50;;;6.50;99.90;;;;;;5086840;28;20458;-77
2022/01/31 01:43:15;;;;;;;30.63;7.85;;;6.50;99.90;;;;;;5089864;28;20107;-77
2022/01/31 01:45:42;;;;;;;29.08;7.60;;;6.50;99.90;;;;;;5094792;28;20024;-76
2022/01/31 01:48:09;;;;;;;28.08;7.05;;;6.60;99.90;;;;;;5091326;28;20027;-77
2022/01/31 01:50:37;;;;;;;32.22;8.05;;;6.60;99.90;;;;;;5084890;28;20028;-76
2022/01/31 01:53:04;;;;;;;31.83;7.50;;;6.50;99.90;;;;;;5092517;28;20380;-77
2022/01/31 01:55:30;;;;;;;36.20;7.93;;;6.60;99.90;;;;;;5076532;28;20065;-77
2022/01/31 01:57:57;;;;;;;31.58;9.48;;;6.50;99.90;;;;;;5085137;28;20020;-76
2022/01/31 02:00:27;;;;;;;26.88;8.27;;;6.60;99.90;;;;;;5092013;28;20116;-77
2022/01/31 02:02:55;;;;;;;24.13;7.57;;;6.50;99.90;;;;;;5071478;28;20439;-76
2022/01/31 02:05:22;;;;;;;32.78;8.80;;;6.50;99.90;;;;;;5090145;28;20044;-75
2022/01/31 02:07:48;;;;;;;34.58;7.75;;;6.50;99.90;;;;;;5089744;28;20028;-78
2022/01/31 02:10:16;;;;;;;25.08;8.40;;;6.50;99.90;;;;;;5093699;28;20084;-75
2022/01/31 02:12:43;;;;;;;26.13;6.75;;;6.50;99.90;;;;;;5083650;28;20029;-76
2022/01/31 02:15:11;;;;;;;34.53;7.68;;;6.40;99.90;;;;;;5086381;28;20045;-76
2022/01/31 02:17:38;;;;;;;32.67;7.80;;;6.50;99.90;;;;;;5087775;28;20026;-75
2022/01/31 02:20:06;;;;;;;23.08;5.97;;;6.50;99.90;;;;;;5088220;28;20028;-75
2022/01/31 02:22:32;;;;;;;24.75;7.13;;;6.40;99.90;;;;;;5087621;28;20020;-77
2022/01/31 02:24:58;;;;;;;24.02;6.57;;;6.40;99.90;;;;;;5092252;28;20034;-77
2022/01/31 02:27:34;;;;;;;34.10;7.28;;;6.50;99.90;;;;;;5091014;28;20099;-76
2022/01/31 02:30:01;;;;;;;28.98;7.78;;;6.50;99.90;;;;;;5090680;28;20020;-76
2022/01/31 02:32:27;;;;;;;29.08;7.68;;;6.60;99.90;;;;;;5087826;28;20028;-74
2022/01/31 02:34:53;;;;;;;29.45;7.43;;;6.70;99.90;;;;;;5094198;28;20031;-75
2022/01/31 02:37:19;;;;;;;21.75;6.45;;;6.60;99.90;;;;;;5090975;28;20434;-75
2022/01/31 02:39:45;;;;;;;33.67;6.97;;;6.60;99.90;;;;;;5090953;28;20032;-75
2022/01/31 02:42:12;;;;;;;25.88;6.82;;;6.60;99.90;;;;;;5089778;28;20036;-75
2022/01/31 02:44:42;;;;;;;20.73;6.32;;;6.60;99.90;;;;;;5084246;28;20032;-75
2022/01/31 02:47:12;;;;;;;21.52;6.50;;;6.60;99.90;;;;;;5086256;28;20035;-78
2022/01/31 02:50:01;;;;;;;29.65;6.25;;;6.70;99.90;;;;;;5086724;28;20106;-75
2022/01/31 02:52:26;;;;;;;24.48;6.07;;;6.70;99.90;;;;;;5084563;28;20036;-75
2022/01/31 02:54:52;;;;;;;18.23;5.13;;;6.60;99.90;;;;;;5085726;28;20035;-75
2022/01/31 02:57:18;;;;;;;19.58;5.88;;;6.70;99.90;;;;;;5089210;28;20024;-76
2022/01/31 02:59:43;;;;;;;19.73;5.78;;;6.70;99.90;;;;;;5089884;28;20376;-75
2022/01/31 03:02:09;;;;;;;17.70;5.70;;;6.80;99.90;;;;;;5079759;28;20441;-76
2022/01/31 03:04:35;;;;;;;16.40;5.22;;;6.70;99.90;;;;;;5089171;28;20391;-75
2022/01/31 03:07:00;;;;;;;17.55;6.07;;;6.80;99.90;;;;;;5091341;28;20554;-75
2022/01/31 03:09:26;;;;;;;14.25;5.43;;;6.80;99.90;;;;;;5089576;28;20080;-75
2022/01/31 03:11:52;;;;;;;17.67;6.15;;;6.90;99.90;;;;;;5084135;28;20025;-76
2022/01/31 03:14:19;;;;;;;14.38;5.53;;;6.90;99.90;;;;;;5089992;28;20037;-75
2022/01/31 03:16:48;;;;;;;17.77;6.40;;;6.90;99.90;;;;;;5089734;28;20034;-75
2022/01/31 03:19:15;;;;;;;16.42;5.85;;;6.90;99.90;;;;;;5091768;28;20036;-75
2022/01/31 03:21:41;;;;;;;16.30;6.28;;;7.00;99.90;;;;;;5084178;28;20077;-74
2022/01/31 03:24:08;;;;;;;17.30;6.35;;;7.00;99.90;;;;;;5090198;28;20478;-75
2022/01/31 03:26:33;;;;;;;14.05;6.50;;;7.10;99.90;;;;;;5078992;28;20020;-75
2022/01/31 03:28:59;;;;;;;12.55;5.93;;;7.10;99.90;;;;;;5086888;28;20027;-75
2022/01/31 03:31:25;;;;;;;16.02;5.88;;;7.00;99.90;;;;;;5093473;28;20024;-74
2022/01/31 03:33:53;;;;;;;15.77;6.88;;;7.10;99.90;;;;;;5088615;28;20107;-76
2022/01/31 03:36:19;;;;;;;17.90;7.32;;;7.10;99.90;;;;;;5087357;28;20197;-76
2022/01/31 03:38:46;;;;;;;14.73;6.97;;;7.10;99.90;;;;;;5092097;28;20122;-76
2022/01/31 03:41:17;;;;;;;16.85;7.35;;;7.10;99.90;;;;;;5089271;28;20020;-74
2022/01/31 03:43:44;;;;;;;22.90;7.20;;;7.10;99.90;;;;;;5090892;28;20085;-74
2022/01/31 03:46:09;;;;;;;18.25;7.57;;;7.20;99.90;;;;;;5089070;28;20097;-74
2022/01/31 03:48:36;;;;;;;19.98;8.02;;;7.20;99.90;;;;;;5087466;28;20037;-74
2022/01/31 03:51:03;;;;;;;21.95;8.35;;;7.20;99.90;;;;;;5088797;28;20494;-74
2022/01/31 03:53:30;;;;;;;18.13;7.68;;;7.20;99.90;;;;;;5084450;28;20033;-75
2022/01/31 03:55:56;;;;;;;16.33;6.82;;;7.20;99.90;;;;;;5088544;28;20987;-74
2022/01/31 03:58:21;;;;;;;15.43;7.38;;;7.20;99.90;;;;;;5091177;28;20040;-74
2022/01/31 04:00:48;;;;;;;23.20;7.43;;;7.20;99.90;;;;;;5089815;28;20479;-75
2022/01/31 04:03:14;;;;;;;25.60;7.25;;;7.20;99.90;;;;;;5086986;28;20028;-79
2022/01/31 04:05:40;;;;;;;23.13;6.25;;;7.20;99.90;;;;;;5086870;28;20029;-77
2022/01/31 04:08:07;;;;;;;19.40;6.43;;;7.30;99.90;;;;;;5091612;28;20035;-75
2022/01/31 04:10:33;;;;;;;17.38;6.07;;;7.30;99.90;;;;;;5080597;28;20099;-75
2022/01/31 04:12:58;;;;;;;17.80;5.85;;;7.30;99.90;;;;;;5090165;28;20480;-77
2022/01/31 04:15:24;;;;;;;13.60;4.15;;;7.30;99.90;;;;;;5089186;28;20582;-80
2022/01/31 04:17:50;;;;;;;19.00;4.72;;;7.40;99.90;;;;;;5089660;28;20043;-75
2022/01/31 04:20:17;;;;;;;19.55;3.97;;;7.40;99.90;;;;;;5096660;28;20028;-76
2022/01/31 04:22:51;;;;;;;18.83;4.18;;;7.50;99.90;;;;;;5089935;28;20032;-75
2022/01/31 04:28:04;;;;;;;14.68;3.30;;;7.50;99.90;;;;;;5071390;28;20029;-75
2022/01/31 04:30:35;;;;;;;19.42;3.35;;;7.40;99.90;;;;;;5095780;28;20020;-78
2022/01/31 04:33:01;;;;;;;17.77;4.68;;;7.50;99.90;;;;;;5092453;28;20368;-79
2022/01/31 04:35:26;;;;;;;17.38;3.83;;;7.50;99.90;;;;;;5085128;28;20020;-77
2022/01/31 04:37:52;;;;;;;15.00;3.58;;;7.40;99.90;;;;;;5090706;28;20032;-75
2022/01/31 04:40:18;;;;;;;14.38;3.13;;;7.50;99.90;;;;;;5087106;28;20039;-76
2022/01/31 04:42:44;;;;;;;17.20;3.17;;;7.50;99.90;;;;;;5089491;28;20034;-76
2022/01/31 04:45:11;;;;;;;12.90;3.13;;;7.50;99.90;;;;;;5091455;28;20028;-79
2022/01/31 04:47:37;;;;;;;22.98;3.60;;;7.50;99.90;;;;;;5087872;28;20357;-75
2022/01/31 04:50:04;;;;;;;15.57;3.10;;;7.50;99.90;;;;;;5091183;28;20069;-76
2022/01/31 04:52:30;;;;;;;22.42;2.75;;;7.60;99.90;;;;;;5087698;28;20543;-77
2022/01/31 04:54:56;;;;;;;15.63;2.92;;;7.50;99.90;;;;;;5087485;28;20104;-75
2022/01/31 04:57:21;;;;;;;15.32;2.88;;;7.50;99.90;;;;;;5087282;28;20047;-79
2022/01/31 04:59:49;;;;;;;19.05;3.45;;;7.50;99.90;;;;;;5089059;28;20030;-78
2022/01/31 05:02:15;;;;;;;12.20;2.60;;;7.50;99.90;;;;;;5091486;28;20027;-76
2022/01/31 05:04:41;;;;;;;15.57;2.80;;;7.50;99.90;;;;;;5086841;28;20035;-75
2022/01/31 05:07:06;;;;;;;19.15;2.80;;;7.50;99.90;;;;;;5089898;28;20419;-75
2022/01/31 05:09:32;;;;;;;15.50;3.13;;;7.50;99.90;;;;;;5095290;28;20446;-75
2022/01/31 05:11:59;;;;;;;20.77;2.80;;;7.50;99.90;;;;;;5087014;28;20039;-79
2022/01/31 05:14:25;;;;;;;19.13;3.38;;;7.50;99.90;;;;;;5091765;28;20388;-76
2022/01/31 05:16:51;;;;;;;19.35;3.30;;;7.60;99.90;;;;;;5092098;28;20467;-80
2022/01/31 05:19:16;;;;;;;17.55;2.90;;;7.50;99.90;;;;;;5087506;28;20035;-77
2022/01/31 05:21:42;;;;;;;15.80;2.75;;;7.50;99.90;;;;;;5092131;28;20034;-75
2022/01/31 05:24:08;;;;;;;19.10;3.33;;;7.60;99.90;;;;;;5087382;28;20028;-77
2022/01/31 05:26:34;;;;;;;20.92;3.05;;;7.50;99.90;;;;;;5086694;28;20382;-75
2022/01/31 05:29:00;;;;;;;16.92;2.60;;;7.50;99.90;;;;;;5090169;28;20488;-75
2022/01/31 05:31:25;;;;;;;18.42;3.50;;;7.50;99.90;;;;;;5086862;28;20023;-74
2022/01/31 05:33:51;;;;;;;23.67;3.40;;;7.50;99.90;;;;;;5093609;28;20032;-76
2022/01/31 05:36:17;;;;;;;20.55;3.05;;;7.50;99.90;;;;;;5090956;28;20058;-74
2022/01/31 05:38:44;;;;;;;16.55;3.08;;;7.50;99.90;;;;;;5089834;28;20392;-74
2022/01/31 05:41:17;;;;;;;21.02;2.97;;;7.50;99.90;;;;;;5094501;28;20035;-75
2022/01/31 05:43:42;;;;;;;13.93;2.97;;;7.50;99.90;;;;;;5087388;28;20047;-75
2022/01/31 05:46:08;;;;;;;21.08;3.97;;;7.50;99.90;;;;;;5087641;28;20468;-75
2022/01/31 05:48:34;;;;;;;16.50;3.30;;;7.50;99.90;;;;;;5088945;28;20103;-75
2022/01/31 05:51:02;;;;;;;16.77;2.85;;;7.50;99.90;;;;;;5088717;28;20468;-75
2022/01/31 05:53:30;;;;;;;15.75;3.22;;;7.60;99.90;;;;;;5089975;28;20388;-75
2022/01/31 05:55:59;;;;;;;15.13;2.92;;;7.60;99.90;;;;;;5086714;28;20024;-76
2022/01/31 05:58:24;;;;;;;17.10;3.00;;;7.50;99.90;;;;;;5091264;28;20055;-75
2022/01/31 06:00:50;;;;;;;19.67;3.50;;;7.50;99.90;;;;;;5089382;28;20024;-75
2022/01/31 06:03:16;;;;;;;17.50;3.13;;;7.40;99.90;;;;;;5091030;28;20032;-76
2022/01/31 06:05:42;;;;;;;20.67;3.85;;;7.50;99.90;;;;;;5091298;28;20076;-78
2022/01/31 06:08:07;;;;;;;16.70;2.78;;;7.40;99.90;;;;;;5088357;28;20021;-80
2022/01/31 06:10:40;;;;;;;17.63;2.90;;;7.40;99.90;;;;;;5090537;28;20032;-75
2022/01/31 06:13:05;;;;;;;16.80;3.05;;;7.40;99.90;;;;;;5092674;28;20383;-76
2022/01/31 06:15:31;;;;;;;19.63;3.13;;;7.40;99.90;;;;;;5091446;28;20032;-78
2022/01/31 06:17:57;;;;;;;17.25;3.03;;;7.40;99.90;;;;;;5087728;28;20074;-75
2022/01/31 06:20:22;;;;;;;20.83;4.05;;;7.50;99.90;;;;;;5085439;28;20526;-76
2022/01/31 06:22:50;;;;;;;25.23;3.67;;;7.40;99.90;;;;;;5092485;28;20058;-76
2022/01/31 06:25:17;;;;;;;15.13;3.05;;;7.40;99.90;;;;;;5091288;28;20085;-77
2022/01/31 06:27:43;;;;;;;22.85;3.10;;;7.30;99.90;;;;;;5085868;28;20060;-79
2022/01/31 06:30:10;;;;;;;21.00;3.65;;;7.30;99.90;;;;;;5090951;28;20050;-77
2022/01/31 06:32:37;;;;;;;19.98;3.67;;;7.20;99.90;;;;;;5087559;28;20032;-78
2022/01/31 06:35:03;;;;;;;20.10;2.85;;;7.20;99.90;;;;;;5089818;28;20062;-77
2022/01/31 06:37:29;;;;;;;13.65;2.35;;;7.20;99.90;;;;;;5088934;28;20097;-76
2022/01/31 06:39:55;;;;;;;12.60;2.85;;;7.20;99.90;;;;;;5088670;28;20032;-75
2022/01/31 06:42:20;;;;;;;20.38;3.58;;;7.20;99.90;;;;;;5083719;28;20024;-78
2022/01/31 06:44:46;;;;;;;16.98;3.42;;;7.20;99.90;;;;;;5090834;28;20039;-76
2022/01/31 06:47:12;;;;;;;11.23;2.47;;;7.20;99.90;;;;;;5085566;28;20464;-75
2022/01/31 06:49:37;;;;;;;19.23;3.15;;;7.10;99.90;;;;;;5085388;28;20028;-75
2022/01/31 06:52:04;;;;;;;15.65;3.13;;;7.20;99.90;;;;;;5090518;28;20055;-79
2022/01/31 06:54:30;;;;;;;17.63;2.72;;;7.10;99.90;;;;;;5087902;28;20469;-76
2022/01/31 06:56:57;;;;;;;15.55;2.55;;;7.10;99.90;;;;;;5092057;28;20020;-77
2022/01/31 06:59:23;;;;;;;15.73;3.20;;;7.10;99.90;;;;;;5089936;28;20046;-75
2022/01/31 07:01:48;;;;;;;11.60;2.42;;;7.10;99.90;;;;;;5086686;28;20028;-77
2022/01/31 07:04:14;;;;;;;14.05;2.50;;;7.00;99.90;;;;;;5089849;28;20032;-77
2022/01/31 07:06:41;;;;;;;13.93;2.70;;;7.10;99.90;;;;;;5087360;28;20117;-76
2022/01/31 07:09:06;;;;;;;16.52;3.75;;;7.00;99.90;;;;;;5087910;28;20107;-77
2022/01/31 07:11:37;;;;;;;13.93;2.00;;;7.00;99.90;;;;;;5090890;28;20103;-77
2022/01/31 07:14:06;;;;;;;14.50;3.15;;;6.90;99.90;;;;;;5088478;28;20032;-77
2022/01/31 07:16:34;;;;;;;13.65;3.40;;;6.90;99.90;;;;;;5089423;28;20350;-78
2022/01/31 07:19:08;;;;;;;13.48;2.67;;;7.00;99.90;;;;;;5086185;28;20032;-80
2022/01/31 07:21:39;;;;;;;16.52;3.15;;;6.80;99.90;;;;;;5086770;28;20020;-76
2022/01/31 07:26:34;;;;;;;19.30;2.90;;;6.90;99.90;;;;;;5083265;28;20044;-75
2022/01/31 07:28:59;;;;;;;20.55;3.85;;;6.90;99.90;;;;;;5087281;28;20024;-76
2022/01/31 07:31:25;;;;;;;14.30;2.90;;;6.70;99.90;;;;;;5089830;28;20024;-75
2022/01/31 07:33:51;;;;;;;19.70;2.95;;;6.80;99.90;;;;;;5088302;28;20019;-77
2022/01/31 07:36:17;;;;;;;22.05;4.50;;;6.80;99.90;;;;;;5090797;28;20468;-75
2022/01/31 07:38:43;;;;;;;22.20;4.60;;;6.80;99.90;;;;;;5085459;28;20134;-76
2022/01/31 07:41:12;;;;;;;21.75;3.03;;;6.80;99.90;;;;;;5085883;28;20500;-75
2022/01/31 07:43:38;;;;;;;20.45;3.60;;;6.80;99.90;;;;;;5084045;28;20032;-77
2022/01/31 07:46:04;;;;;;;13.98;3.05;;;6.80;99.90;;;;;;5085492;28;20027;-78
2022/01/31 07:48:31;;;;;;;21.33;3.03;;;6.80;99.90;;;;;;5091773;28;20357;-75
2022/01/31 07:50:57;;;;;;;14.70;3.13;;;6.80;99.90;;;;;;5090415;28;20010;-75
2022/01/31 07:53:23;;;;;;;22.60;3.83;;;6.80;99.90;;;;;;5087671;28;20099;-77
2022/01/31 07:55:49;;;;;;;19.23;3.10;;;6.80;99.90;;;;;;5086712;28;20384;-75
2022/01/31 07:58:16;;;;;;;21.40;3.00;;;6.90;99.90;;;;;;5081985;28;20717;-76
2022/01/31 08:00:42;;;;;;;18.10;3.20;;;6.80;99.90;;;;;;5080503;28;20047;-75
2022/01/31 08:03:08;;;;;;;26.02;4.13;;;6.80;99.90;;;;;;5081907;28;20388;-75
2022/01/31 08:05:33;;;;;;;19.88;3.75;;;6.80;99.90;;;;;;5089508;28;20024;-75
2022/01/31 08:07:59;;;;;;;21.08;3.63;;;6.80;99.90;;;;;;5091889;28;20424;-75
2022/01/31 08:10:25;;;;;;;18.92;3.45;;;6.80;99.90;;;;;;5088202;28;20178;-76
2022/01/31 08:12:51;;;;;;;21.77;3.15;;;6.80;99.90;;;;;;5089808;28;20023;-75
2022/01/31 08:15:25;;;;;;;17.15;3.22;;;6.80;99.90;;;;;;5092154;28;20032;-75
2022/01/31 08:17:50;;;;;;;23.92;4.18;;;6.80;99.90;;;;;;5091659;28;20107;-75
2022/01/31 08:20:16;;;;;;;31.73;3.78;;;6.80;99.90;;;;;;5092438;28;20181;-74
2022/01/31 08:22:42;;;;;;;24.40;3.80;;;6.80;99.90;;;;;;5092564;28;20035;-75
2022/01/31 08:25:13;;;;;;;24.60;3.67;;;6.90;99.90;;;;;;5092158;28;20026;-74
2022/01/31 08:27:41;;;;;;;25.90;3.85;;;6.90;99.90;;;;;;5091305;28;20480;-76
2022/01/31 08:30:12;;;;;;;22.55;4.05;;;6.80;99.90;;;;;;5082930;28;20028;-77
2022/01/31 08:32:44;;;;;;;25.75;4.47;;;6.90;99.90;;;;;;5082210;28;20103;-75
2022/01/31 08:37:58;;;;;;;27.92;5.07;;;6.80;99.90;;;;;;5086716;28;20043;-79
2022/01/31 08:40:23;;;;;;;32.97;4.75;;;6.80;99.90;;;;;;5081939;28;20455;-76
2022/01/31 08:42:49;;;;;;;25.60;3.63;;;6.80;99.90;;;;;;5071307;28;20108;-77
2022/01/31 08:45:15;;;;;;;26.42;5.18;;;6.80;99.90;;;;;;5071160;28;20048;-75
2022/01/31 08:47:42;;;;;;;24.17;4.10;;;6.80;99.90;;;;;;5082281;28;20016;-75
2022/01/31 08:50:09;;;;;;;30.77;4.60;;;6.80;99.90;;;;;;5075391;28;20032;-75
2022/01/31 08:52:36;;;;;;;26.65;4.72;;;6.80;99.90;;;;;;5077325;28;20021;-75
2022/01/31 08:55:01;;;;;;;21.63;3.25;;;6.80;99.90;;;;;;5075835;28;20028;-76
2022/01/31 08:57:27;;;;;;;28.98;4.97;;;6.80;99.90;;;;;;5075911;28;20508;-80
2022/01/31 08:59:53;;;;;;;27.98;4.82;;;6.80;99.90;;;;;;5075305;28;20025;-76
2022/01/31 09:02:26;;;;;;;34.40;5.07;;;6.90;99.90;;;;;;5080538;28;20267;-76
2022/01/31 09:04:52;;;;;;;32.88;5.47;;;6.80;99.90;;;;;;5086363;28;20024;-76
2022/01/31 09:07:20;;;;;;;25.48;4.43;;;6.90;99.90;;;;;;5088719;28;20521;-75
2022/01/31 09:09:50;;;;;;;31.17;4.35;;;6.90;99.90;;;;;;5095588;28;20058;-75
2022/01/31 09:12:17;;;;;;;25.30;4.93;;;6.90;99.90;;;;;;5094746;28;20024;-75
2022/01/31 09:14:43;;;;;;;26.15;5.22;;;6.90;99.90;;;;;;5088095;28;20019;-75
2022/01/31 09:17:09;;;;;;;25.42;5.57;;;7.00;99.90;;;;;;5086587;28;20111;-77
2022/01/31 09:19:35;;;;;;;29.25;5.32;;;7.00;99.90;;;;;;5078353;28;20119;-76
2022/01/31 09:22:01;;;;;;;35.28;6.07;;;7.00;99.90;;;;;;5083357;28;20051;-77
2022/01/31 09:24:28;;;;;;;25.08;5.85;;;7.00;99.90;;;;;;5076478;28;20024;-76
2022/01/31 09:26:54;;;;;;;23.48;4.40;;;7.00;99.90;;;;;;5086759;28;20022;-75
2022/01/31 09:29:20;;;;;;;29.27;4.45;;;7.00;99.90;;;;;;5078819;28;20028;-76
2022/01/31 09:31:45;;;;;;;32.08;5.10;;;7.00;99.90;;;;;;5073174;28;20482;-75
2022/01/31 09:34:11;;;;;;;27.95;4.95;;;7.00;99.90;;;;;;5085890;28;20353;-75
2022/01/31 09:36:37;;;;;;;28.55;5.32;;;7.00;99.90;;;;;;5102052;28;20027;-76
2022/01/31 09:39:03;;;;;;;21.30;3.90;;;7.10;99.90;;;;;;5090889;27;20090;-77
2022/01/31 09:41:31;;;;;;;27.77;4.45;;;7.00;99.90;;;;;;5087200;28;20082;-78
2022/01/31 09:44:17;;;;;;;27.70;4.82;;;7.10;99.90;;;;;;5087929;28;20029;-75
2022/01/31 09:46:47;;;;;;;26.85;4.68;;;7.10;99.90;;;;;;5084349;28;20028;-76
2022/01/31 09:49:14;;;;;;;27.95;6.10;;;7.20;99.90;;;;;;5083292;28;20020;-76
2022/01/31 09:51:40;;;;;;;32.28;4.75;;;7.20;99.90;;;;;;5079428;28;20387;-75
2022/01/31 09:54:06;;;;;;;43.38;4.88;;;7.10;99.90;;;;;;5073585;28;20104;-75
2022/01/31 09:56:37;;;;;;;27.05;4.47;;;7.10;99.90;;;;;;5074976;28;20031;-77
2022/01/31 09:59:04;;;;;;;35.38;5.30;;;7.10;99.90;;;;;;5074447;28;20032;-75
2022/01/31 10:01:33;;;;;;;29.17;5.00;;;7.20;99.90;;;;;;5077172;28;20024;-74
2022/01/31 10:04:10;;;;;;;22.33;4.22;;;7.20;99.90;;;;;;5089996;28;20016;-76
2022/01/31 10:06:38;;;;;;;34.25;4.72;;;7.10;99.90;;;;;;5094405;28;20091;-75
2022/01/31 10:09:08;;;;;;;18.77;4.05;;;7.10;99.90;;;;;;5092018;28;20028;-75
2022/01/31 10:11:47;;;;;;;18.35;3.97;;;7.10;99.90;;;;;;5091639;28;20539;-75
2022/01/31 10:17:04;;;;;;;24.08;3.95;;;7.00;99.90;;;;;;5092877;28;20097;-76
2022/01/31 10:19:41;;;;;;;29.42;5.65;;;7.00;99.90;;;;;;5097648;28;20084;-78
2022/01/31 10:22:11;;;;;;;31.08;5.18;;;7.10;99.90;;;;;;5114911;28;20016;-76
2022/01/31 10:24:40;;;;;;;24.55;4.78;;;7.10;99.90;;;;;;5100041;27;20089;-76
2022/01/31 10:27:11;;;;;;;25.45;4.78;;;7.00;99.90;;;;;;5094137;28;20022;-75
2022/01/31 10:29:38;;;;;;;34.42;6.20;;;7.00;99.90;;;;;;5087867;28;20059;-75
2022/01/31 10:32:03;;;;;;;30.05;4.55;;;7.10;99.90;;;;;;5085846;28;20017;-75
2022/01/31 10:34:32;;;;;;;25.90;5.82;;;7.10;99.90;;;;;;5090142;28;20400;-76
2022/01/31 10:37:10;;;;;;;32.38;5.53;;;7.10;99.90;;;;;;5086941;28;20359;-76
2022/01/31 10:54:00;;;;;;;39.35;6.97;;;7.30;99.90;;;;;;5090968;28;20032;-76
2022/01/31 10:56:36;;;;;;;43.40;6.72;;;7.30;99.90;;;;;;5092391;28;20028;-75
2022/01/31 10:59:07;;;;;;;34.75;6.25;;;7.30;99.90;;;;;;5087854;28;20036;-76
2022/01/31 11:01:34;;;;;;;37.40;7.78;;;7.30;99.90;;;;;;5088621;28;20441;-75
2022/01/31 11:04:05;;;;;;;46.97;7.82;;;7.30;99.90;;;;;;5090182;28;20518;-77
2022/01/31 11:06:32;;;;;;;35.55;7.22;;;7.40;99.90;;;;;;5089593;28;20035;-77
2022/01/31 11:09:12;;;;;;;35.25;6.55;;;7.20;99.90;;;;;;5088919;28;20479;-77
2022/01/31 11:11:40;;;;;;;38.20;6.25;;;7.20;99.90;;;;;;5086059;28;20020;-77
2022/01/31 11:14:08;;;;;;;31.88;6.35;;;7.20;99.90;;;;;;5092312;28;20027;-76
2022/01/31 11:16:34;;;;;;;38.78;6.38;;;7.10;99.90;;;;;;5089704;28;20107;-77
2022/01/31 11:19:06;;;;;;;40.35;5.80;;;7.10;99.90;;;;;;5086721;28;20097;-76
2022/01/31 11:21:34;;;;;;;34.53;6.63;;;7.20;99.90;;;;;;5087020;28;20043;-74
2022/01/31 11:24:03;;;;;;;33.72;5.57;;;7.20;99.90;;;;;;5085280;28;20040;-77
2022/01/31 11:26:37;;;;;;;37.00;6.40;;;7.20;99.90;;;;;;5085078;28;20384;-76
2022/01/31 11:29:04;;;;;;;38.65;6.97;;;7.10;99.90;;;;;;5091597;28;20357;-76
2022/01/31 11:31:31;;;;;;;37.40;5.90;;;7.20;99.90;;;;;;5088898;28;20040;-81
2022/01/31 11:33:58;;;;;;;35.63;6.07;;;7.20;99.90;;;;;;5087613;28;20027;-76
2022/01/31 11:36:24;;;;;;;42.13;6.30;;;7.20;99.90;;;;;;5089807;28;20498;-76
2022/01/31 11:38:51;;;;;;;42.88;6.32;;;7.30;99.90;;;;;;5089475;28;20110;-78
2022/01/31 11:41:18;;;;;;;46.75;6.38;;;7.20;99.90;;;;;;5083255;28;20028;-76
2022/01/31 11:43:53;;;;;;;40.75;7.57;;;7.20;99.90;;;;;;5086963;28;20024;-76
2022/01/31 11:46:24;;;;;;;31.05;6.53;;;7.20;99.90;;;;;;5088665;28;20016;-77
2022/01/31 11:48:52;;;;;;;36.85;6.60;;;7.20;99.90;;;;;;5078638;28;20174;-77
2022/01/31 11:51:20;;;;;;;36.40;6.18;;;7.30;99.90;;;;;;5087800;28;20100;-77
2022/01/31 11:53:46;;;;;;;38.95;6.50;;;7.20;99.90;;;;;;5088060;28;20024;-76
2022/01/31 11:56:22;;;;;;;42.88;7.75;;;7.20;99.90;;;;;;5088384;28;20020;-77
2022/01/31 11:58:52;;;;;;;48.92;7.15;;;7.20;99.90;;;;;;5083072;28;20462;-77
2022/01/31 12:01:20;;;;;;;51.85;6.68;;;7.20;99.90;;;;;;5085947;28;20031;-77
2022/01/31 12:03:53;;;;;;;37.13;6.80;;;7.20;99.90;;;;;;5082869;28;20082;-76
2022/01/31 12:06:27;;;;;;;40.40;6.80;;;7.30;99.90;;;;;;5084751;28;20052;-76
2022/01/31 12:09:02;;;;;;;40.10;6.97;;;7.30;99.90;;;;;;5086912;28;20024;-76
2022/01/31 12:11:30;;;;;;;55.95;6.82;;;7.30;99.90;;;;;;5085345;28;20035;-76
2022/01/31 12:14:06;;;;;;;46.80;7.88;;;7.30;99.90;;;;;;5088201;28;20031;-76
2022/01/31 12:19:27;;;;;;;35.63;7.03;;;7.20;99.90;;;;;;5087518;28;20043;-75
2022/01/31 12:22:08;;;;;;;36.80;5.93;;;7.20;99.90;;;;;;5083601;28;20028;-76
2022/01/31 12:24:42;;;;;;;36.70;6.75;;;7.20;99.90;;;;;;5088533;28;20030;-76
2022/01/31 12:27:15;;;;;;;47.20;8.25;;;7.20;99.90;;;;;;5094154;28;20388;-76
2022/01/31 12:29:52;;;;;;;43.22;7.43;;;7.20;99.90;;;;;;5092066;28;20024;-76
2022/01/31 12:32:22;;;;;;;33.85;6.57;;;7.10;99.90;;;;;;5091600;28;20090;-76
2022/01/31 12:34:49;;;;;;;47.13;8.02;;;7.20;99.90;;;;;;5092578;28;20020;-76
2022/01/31 12:37:19;;;;;;;35.28;7.15;;;7.30;99.90;;;;;;5092752;28;20103;-76
2022/01/31 12:40:03;;;;;;;42.83;6.35;;;7.20;99.90;;;;;;5092794;28;20068;-76
2022/01/31 12:42:53;;;;;;;41.90;7.00;;;7.20;99.90;;;;;;5093113;28;20032;-75
2022/01/31 12:45:27;;;;;;;43.88;7.40;;;7.20;99.90;;;;;;5091334;28;20020;-76
2022/01/31 12:48:18;;;;;;;41.80;6.85;;;7.20;99.90;;;;;;5090689;28;20035;-76
2022/01/31 12:50:53;;;;;;;38.25;7.05;;;7.10;99.90;;;;;;5090072;28;20024;-76
2022/01/31 12:53:26;;;;;;;42.50;7.13;;;7.10;99.90;;;;;;5093282;28;20026;-76
2022/01/31 12:56:10;;;;;;;39.10;6.85;;;7.00;99.90;;;;;;5091824;28;20115;-76
2022/01/31 12:58:39;;;;;;;42.55;6.90;;;7.00;99.90;;;;;;5087499;28;20020;-76
2022/01/31 13:01:14;;;;;;;33.40;5.72;;;7.10;99.90;;;;;;5095112;28;20028;-76
2022/01/31 13:03:42;;;;;;;34.17;6.18;;;7.00;99.90;;;;;;5094797;28;20447;-76
2022/01/31 13:06:29;;;;;;;42.35;6.32;;;7.10;99.90;;;;;;5094075;28;20539;-75
2022/01/31 13:08:56;;;;;;;35.35;6.00;;;7.00;99.90;;;;;;5094680;28;20024;-75
2022/01/31 13:11:22;;;;;;;43.03;7.95;;;7.10;99.90;;;;;;5093543;28;20032;-76
2022/01/31 13:13:48;;;;;;;45.08;7.00;;;7.10;99.90;;;;;;5095094;28;20081;-76
2022/01/31 13:16:14;;;;;;;33.67;6.70;;;7.00;99.90;;;;;;5094348;28;20376;-76
2022/01/31 13:18:40;;;;;;;44.38;7.00;;;7.00;99.90;;;;;;5095556;28;20036;-76